This is the latest recevied weather packets stored in our database for station/object PY2WOA-13. If no packets are shown the sender has not sent any weather packets the latest 10 day(s).
| Time | Temp. | Humidity | Pressure | Rain* | Wind** | Luminosity | Snow |
|---|---|---|---|---|---|---|---|
| 1788235503 | 21.67° C | 100% | 1010.7 hPa | - | - | - | - |
| 1788233704 | 21.67° C | 100% | 1009.4 hPa | - | - | - | - |
| 1788231905 | 25° C | 81% | 1008.3 hPa | - | - | - | - |
| 1788230104 | 26.67° C | 72% | 1005.9 hPa | - | - | - | - |
| 1788228304 | 27.22° C | 73% | 1005.5 hPa | - | - | - | - |
| 1788226504 | 27.22° C | 71% | 1005.4 hPa | - | - | - | - |
| 1788224704 | 27.22° C | 69% | 1005.4 hPa | - | - | - | - |
| 1788222903 | 27.78° C | 71% | 1005 hPa | - | - | - | - |
| 1788221104 | 27.78° C | 69% | 1004.8 hPa | - | - | - | - |
| 1788217504 | 28.89° C | 63% | 1004.1 hPa | - | - | - | - |
| 1788215704 | 29.44° C | 60% | 1004.2 hPa | - | - | - | - |
| 1788213904 | 29.44° C | 60% | 1004.1 hPa | - | - | - | - |
| 1788212104 | 29.44° C | 59% | 1004 hPa | - | - | - | - |
| 1788210303 | 30.56° C | 55% | 1004.3 hPa | - | - | - | - |
| 1788208522 | 31.67° C | 49% | 1004.1 hPa | - | - | - | - |
| 1788206704 | 32.78° C | 44% | 1003.6 hPa | - | - | - | - |
| 1788204904 | 35.56° C | 38% | 1003 hPa | - | - | - | - |
| 1788203113 | 36.67° C | 37% | 1003.4 hPa | - | - | - | - |
| 1788201311 | 37.22° C | 38% | 1003.6 hPa | - | - | - | - |
| 1788199504 | 36.67° C | 39% | 1004 hPa | - | - | - | - |
| 1788197704 | 36.67° C | 39% | 1004.5 hPa | - | - | - | - |
| 1788195903 | 36.11° C | 39% | 1005.3 hPa | - | - | - | - |
| 1788194104 | 35° C | 43% | 1006 hPa | - | - | - | - |
| 1788192304 | 33.89° C | 44% | 1006.9 hPa | - | - | - | - |
| 1788190504 | 33.33° C | 50% | 1007.6 hPa | - | - | - | - |
* Rain since midnight (hover to see other rain measurements)
** Current wind speed in m/s (hover to see current wind gust speed)